Time;durP1;ratioP1;P1;durP2;ratioP2;P2;SDS_P1;SDS_P2;PMS_P1;PMS_P2;Temp;Humidity;BMP_temperature;BMP_pressure;BME280_temperature;BME280_humidity;BME280_pressure;Samples;Min_cycle;Max_cycle;Signal;HPM_P1;HPM_P2
2022/08/05 00:01:47;;;;;;;9.90;2.90;;;17.80;80.60;;;;;;5013809;28;20174;-88
2022/08/05 00:04:13;;;;;;;11.93;2.78;;;17.80;80.80;;;;;;5013912;28;20280;-88
2022/08/05 00:06:38;;;;;;;9.73;2.95;;;17.80;80.60;;;;;;5013638;28;20197;-88
2022/08/05 00:09:04;;;;;;;5.95;2.40;;;17.80;81.00;;;;;;5013555;28;20229;-88
2022/08/05 00:11:30;;;;;;;8.95;2.95;;;17.80;81.10;;;;;;5013769;28;20173;-88
2022/08/05 00:13:56;;;;;;;8.55;3.38;;;17.70;80.90;;;;;;5014446;28;20174;-88
2022/08/05 00:16:22;;;;;;;8.75;2.60;;;17.80;81.10;;;;;;5014702;28;20193;-88
2022/08/05 00:18:48;;;;;;;5.72;2.88;;;17.80;81.30;;;;;;5014311;28;20177;-88
2022/08/05 00:21:15;;;;;;;9.02;2.85;;;17.80;81.30;;;;;;5013308;28;20185;-88
2022/08/05 00:23:43;;;;;;;7.55;3.03;;;17.80;81.40;;;;;;5013334;28;20678;-88
2022/08/05 00:26:09;;;;;;;12.85;3.15;;;17.70;82.10;;;;;;5013361;28;20201;-88
2022/08/05 00:28:35;;;;;;;7.97;3.10;;;17.70;82.40;;;;;;5013228;28;20205;-88
2022/08/05 00:31:01;;;;;;;7.95;3.03;;;17.80;82.40;;;;;;5014422;28;20169;-88
2022/08/05 00:33:27;;;;;;;8.30;3.17;;;17.80;82.70;;;;;;5013230;28;20177;-88
2022/08/05 00:35:52;;;;;;;8.77;3.40;;;17.70;83.20;;;;;;5014348;28;20185;-88
2022/08/05 00:38:18;;;;;;;6.13;2.90;;;17.70;83.40;;;;;;5013193;28;20179;-88
2022/08/05 00:40:49;;;;;;;4.95;2.80;;;17.70;83.30;;;;;;5013158;28;20184;-88
2022/08/05 00:43:15;;;;;;;8.13;3.20;;;17.80;83.20;;;;;;5012930;28;20186;-88
2022/08/05 00:45:42;;;;;;;7.35;3.33;;;17.80;83.60;;;;;;5012798;28;20224;-88
2022/08/05 00:48:12;;;;;;;8.35;3.30;;;17.80;83.80;;;;;;5014175;28;20193;-88
2022/08/05 00:50:43;;;;;;;8.38;3.58;;;17.80;83.90;;;;;;5012998;28;20177;-88
2022/08/05 00:53:09;;;;;;;12.23;3.72;;;17.90;83.90;;;;;;5013080;28;20647;-88
2022/08/05 00:55:35;;;;;;;10.13;4.20;;;18.00;83.50;;;;;;5014052;28;20251;-89
2022/08/05 00:58:01;;;;;;;10.52;3.80;;;18.00;83.50;;;;;;5012910;28;20239;-88
2022/08/05 01:00:28;;;;;;;9.35;3.70;;;18.00;83.60;;;;;;5012864;28;20174;-88
2022/08/05 01:02:57;;;;;;;10.57;3.63;;;18.00;83.70;;;;;;5014047;28;20777;-89
2022/08/05 01:05:23;;;;;;;8.00;3.53;;;18.00;83.50;;;;;;5012787;28;20613;-89
2022/08/05 01:07:49;;;;;;;10.82;4.28;;;18.10;83.60;;;;;;5012874;28;20197;-88
2022/08/05 01:10:19;;;;;;;7.72;3.85;;;18.00;83.50;;;;;;5014013;28;20231;-89
2022/08/05 01:12:51;;;;;;;10.50;4.25;;;18.10;83.80;;;;;;5012805;28;20179;-88
2022/08/05 01:15:22;;;;;;;5.00;3.40;;;18.10;83.60;;;;;;5012784;28;20169;-88
2022/08/05 01:18:03;;;;;;;9.18;3.60;;;18.10;83.90;;;;;;5012709;28;20628;-89
2022/08/05 01:20:33;;;;;;;7.55;3.55;;;18.00;83.90;;;;;;5012638;28;20178;-89
2022/08/05 01:23:30;;;;;;;7.78;3.55;;;18.00;83.70;;;;;;5012506;28;20181;-89
2022/08/05 01:26:15;;;;;;;6.90;3.05;;;17.90;83.50;;;;;;5013777;28;20197;-89
2022/08/05 01:29:02;;;;;;;11.18;3.20;;;18.00;83.30;;;;;;5012462;28;20189;-89
2022/08/05 01:31:48;;;;;;;11.13;3.65;;;18.00;82.90;;;;;;5011615;28;20169;-90
2022/08/05 01:34:41;;;;;;;7.35;3.22;;;17.90;82.70;;;;;;5012495;28;20556;-89
2022/08/05 01:37:24;;;;;;;11.77;3.15;;;17.90;83.00;;;;;;5012299;28;20201;-89
2022/08/05 01:39:53;;;;;;;8.15;3.03;;;17.90;83.00;;;;;;5012756;28;20169;-89
2022/08/05 01:42:20;;;;;;;6.82;2.42;;;17.90;82.90;;;;;;5013559;28;20169;-89
2022/08/05 01:44:47;;;;;;;9.90;2.95;;;17.90;82.90;;;;;;5012430;28;20544;-90
2022/08/05 01:47:17;;;;;;;10.73;3.28;;;17.80;83.00;;;;;;5012083;28;20231;-89
2022/08/05 01:49:44;;;;;;;9.15;3.10;;;17.70;83.50;;;;;;5013584;28;20237;-89
2022/08/05 01:52:12;;;;;;;5.10;2.95;;;17.70;83.70;;;;;;5012443;28;20177;-89
2022/08/05 01:54:48;;;;;;;9.57;3.40;;;17.70;83.90;;;;;;5012264;28;20178;-89
2022/08/05 01:57:19;;;;;;;9.65;3.10;;;17.60;84.10;;;;;;5012203;28;20620;-90
2022/08/05 01:59:48;;;;;;;9.25;3.40;;;17.60;84.00;;;;;;5012217;28;20215;-89
2022/08/05 02:02:15;;;;;;;5.40;2.75;;;17.60;84.10;;;;;;5012219;28;20184;-90
2022/08/05 02:04:43;;;;;;;9.13;3.35;;;17.60;84.20;;;;;;5012161;28;20173;-90
2022/08/05 02:07:09;;;;;;;9.77;3.53;;;17.60;84.20;;;;;;5011923;28;20193;-89
2022/08/05 02:09:35;;;;;;;5.05;2.72;;;17.70;84.20;;;;;;5011956;28;20173;-90
2022/08/05 02:12:28;;;;;;;7.78;3.72;;;17.70;84.10;;;;;;5012158;28;20181;-90
2022/08/05 02:15:08;;;;;;;11.18;3.65;;;17.80;83.80;;;;;;5012095;28;20296;-89
2022/08/05 02:17:48;;;;;;;11.85;4.05;;;17.70;83.60;;;;;;5012091;28;20597;-90
2022/08/05 02:20:20;;;;;;;11.52;4.05;;;17.70;84.30;;;;;;5012782;28;20188;-90
2022/08/05 02:22:49;;;;;;;9.50;3.35;;;17.50;85.40;;;;;;5011965;28;20178;-90
2022/08/05 02:25:23;;;;;;;7.90;3.83;;;17.30;86.10;;;;;;5012187;28;20278;-90
2022/08/05 02:27:50;;;;;;;8.68;4.38;;;17.20;86.70;;;;;;5013016;28;20189;-89
2022/08/05 02:30:17;;;;;;;10.35;4.15;;;17.00;87.20;;;;;;5012136;28;20170;-89
2022/08/05 02:32:48;;;;;;;10.27;4.35;;;17.00;87.40;;;;;;5011861;28;20655;-89
2022/08/05 02:35:19;;;;;;;11.95;4.13;;;17.00;87.60;;;;;;5011780;28;20243;-89
2022/08/05 02:37:45;;;;;;;13.63;4.28;;;17.10;87.70;;;;;;5011792;28;20184;-89
2022/08/05 02:40:13;;;;;;;14.50;4.72;;;17.10;87.50;;;;;;5013301;28;20197;-89
2022/08/05 02:42:38;;;;;;;7.15;3.83;;;16.90;87.50;;;;;;5013682;28;20180;-90
2022/08/05 02:45:08;;;;;;;7.72;3.97;;;17.00;87.60;;;;;;5015169;28;20556;-90
2022/08/05 02:47:35;;;;;;;6.63;3.50;;;17.10;87.70;;;;;;5015526;28;20201;-89
2022/08/05 02:50:02;;;;;;;9.38;4.38;;;17.10;87.70;;;;;;5015287;28;20173;-90
2022/08/05 02:52:29;;;;;;;7.45;4.10;;;17.00;87.40;;;;;;5016670;28;20239;-89
2022/08/05 02:54:55;;;;;;;8.05;4.18;;;16.90;88.10;;;;;;5016103;28;20177;-89
2022/08/05 02:57:23;;;;;;;6.95;4.45;;;17.00;87.80;;;;;;5015151;28;20722;-89
2022/08/05 02:59:50;;;;;;;9.48;4.90;;;16.90;87.90;;;;;;5015062;28;20188;-89
2022/08/05 03:02:18;;;;;;;11.63;4.75;;;16.90;88.10;;;;;;5016135;28;20178;-89
2022/08/05 03:04:45;;;;;;;9.57;4.68;;;16.80;88.20;;;;;;5016201;28;20181;-89
2022/08/05 03:07:12;;;;;;;12.50;5.68;;;16.80;88.40;;;;;;5014750;28;20288;-89
2022/08/05 03:09:40;;;;;;;9.20;4.15;;;16.80;88.50;;;;;;5015192;28;20184;-89
2022/08/05 03:12:06;;;;;;;9.30;4.47;;;16.80;88.50;;;;;;5014787;28;20190;-88
2022/08/05 03:14:32;;;;;;;8.90;4.30;;;16.80;88.10;;;;;;5014782;28;20173;-89
2022/08/05 03:16:59;;;;;;;10.85;4.18;;;16.90;88.10;;;;;;5015940;28;20550;-89
2022/08/05 03:19:25;;;;;;;10.43;4.85;;;16.90;87.90;;;;;;5014728;28;20620;-89
2022/08/05 03:21:51;;;;;;;6.95;4.30;;;17.00;87.70;;;;;;5015828;28;20177;-89
2022/08/05 03:24:19;;;;;;;13.85;5.20;;;17.00;87.50;;;;;;5014621;28;20200;-89
2022/08/05 03:26:45;;;;;;;13.60;5.03;;;17.00;87.50;;;;;;5014817;28;20201;-89
2022/08/05 03:29:10;;;;;;;18.73;5.20;;;17.00;87.60;;;;;;5014472;28;20198;-89
2022/08/05 03:31:37;;;;;;;10.98;5.53;;;17.00;87.60;;;;;;5014736;28;20170;-88
2022/08/05 03:34:03;;;;;;;8.60;5.15;;;17.00;87.50;;;;;;5014464;28;20173;-88
2022/08/05 03:36:30;;;;;;;9.60;4.95;;;17.10;87.40;;;;;;5015561;28;20544;-88
2022/08/05 03:38:56;;;;;;;11.48;5.32;;;17.10;87.30;;;;;;5014415;28;20208;-88
2022/08/05 03:41:21;;;;;;;11.60;5.28;;;17.10;87.40;;;;;;5014203;28;20181;-89
2022/08/05 03:43:47;;;;;;;13.95;6.20;;;17.00;87.50;;;;;;5015500;28;20227;-88
2022/08/05 03:46:13;;;;;;;10.77;5.95;;;17.00;87.50;;;;;;5013898;28;20718;-89
2022/08/05 03:48:38;;;;;;;9.88;6.00;;;17.00;87.60;;;;;;5015337;28;20675;-89
2022/08/05 03:51:18;;;;;;;9.40;5.22;;;17.00;87.70;;;;;;5014071;28;20699;-89
2022/08/05 03:53:49;;;;;;;11.57;5.40;;;17.10;87.60;;;;;;5014308;28;20234;-88
2022/08/05 03:56:17;;;;;;;7.15;5.65;;;17.00;87.40;;;;;;5013776;28;20193;-88
2022/08/05 03:58:46;;;;;;;11.88;5.35;;;16.90;87.50;;;;;;5014535;28;20181;-89
2022/08/05 04:01:15;;;;;;;15.10;5.90;;;16.80;87.60;;;;;;5015154;28;20566;-89
2022/08/05 04:03:42;;;;;;;12.65;5.72;;;16.90;87.60;;;;;;5013865;28;20521;-89
2022/08/05 04:06:08;;;;;;;11.38;6.28;;;16.80;87.50;;;;;;5014139;28;20212;-89
2022/08/05 04:08:34;;;;;;;15.65;5.95;;;16.80;87.40;;;;;;5014579;28;20201;-89
2022/08/05 04:11:01;;;;;;;12.18;5.55;;;16.80;87.40;;;;;;5013743;28;20169;-89
2022/08/05 04:13:28;;;;;;;13.02;5.65;;;16.70;87.70;;;;;;5013694;28;20227;-88
2022/08/05 04:15:54;;;;;;;11.05;6.20;;;16.80;87.80;;;;;;5013800;28;20810;-89
2022/08/05 04:18:23;;;;;;;12.43;6.38;;;16.80;87.80;;;;;;5013581;28;20197;-89
2022/08/05 04:20:56;;;;;;;13.07;6.80;;;16.70;87.90;;;;;;5013625;28;20173;-89
2022/08/05 04:23:26;;;;;;;10.18;5.53;;;16.80;88.00;;;;;;5013486;28;20181;-89
2022/08/05 04:25:52;;;;;;;6.85;5.80;;;16.80;88.10;;;;;;5013472;28;20197;-88
2022/08/05 04:28:19;;;;;;;14.10;6.13;;;16.90;88.00;;;;;;5013379;28;20194;-88
2022/08/05 04:30:46;;;;;;;13.38;6.53;;;16.90;87.80;;;;;;5014609;28;20173;-88
2022/08/05 04:33:13;;;;;;;14.55;6.90;;;16.90;88.00;;;;;;5013400;28;20170;-88
2022/08/05 04:35:39;;;;;;;10.32;6.22;;;16.90;87.80;;;;;;5014395;28;20229;-89
2022/08/05 04:38:04;;;;;;;15.45;6.50;;;16.90;87.80;;;;;;5014415;28;20182;-89
2022/08/05 04:40:37;;;;;;;13.80;6.25;;;16.90;87.90;;;;;;5013234;28;20204;-89
2022/08/05 04:43:03;;;;;;;12.32;6.30;;;16.90;88.00;;;;;;5013137;28;20268;-88
2022/08/05 04:45:29;;;;;;;12.25;6.00;;;17.00;88.00;;;;;;5012985;28;20212;-89
2022/08/05 04:48:03;;;;;;;10.75;5.90;;;17.00;88.10;;;;;;5013002;28;20205;-88
2022/08/05 04:50:29;;;;;;;10.55;5.40;;;16.90;88.10;;;;;;5013117;28;20168;-89
2022/08/05 04:52:55;;;;;;;11.05;6.18;;;17.00;88.10;;;;;;5014352;28;20658;-89
2022/08/05 04:55:20;;;;;;;12.02;6.65;;;17.00;88.10;;;;;;5013151;28;20333;-89
2022/08/05 04:57:46;;;;;;;17.73;6.50;;;17.10;88.10;;;;;;5014125;28;20592;-89
2022/08/05 05:00:12;;;;;;;8.25;6.13;;;17.10;88.00;;;;;;5012882;28;20593;-89
2022/08/05 05:02:37;;;;;;;8.15;6.88;;;17.10;88.00;;;;;;5014013;28;20216;-89
2022/08/05 05:05:04;;;;;;;12.55;5.95;;;17.10;88.10;;;;;;5012613;28;20177;-88
2022/08/05 05:07:30;;;;;;;9.73;7.13;;;17.20;88.20;;;;;;5012634;28;20706;-89
2022/08/05 05:09:56;;;;;;;13.35;7.43;;;17.20;88.10;;;;;;5012735;28;20651;-89
2022/08/05 05:12:21;;;;;;;11.05;6.93;;;17.10;88.20;;;;;;5012671;28;20269;-89
2022/08/05 05:14:47;;;;;;;11.43;6.78;;;17.10;88.30;;;;;;5012708;28;20636;-89
2022/08/05 05:17:12;;;;;;;12.65;7.38;;;17.10;88.30;;;;;;5012571;28;20193;-89
2022/08/05 05:19:39;;;;;;;9.90;6.68;;;17.10;88.40;;;;;;5012848;28;20231;-88
2022/08/05 05:22:05;;;;;;;10.27;7.07;;;17.20;88.40;;;;;;5013821;28;20204;-89
2022/08/05 05:24:31;;;;;;;16.38;7.25;;;17.20;88.30;;;;;;5012433;28;20224;-89
2022/08/05 05:26:57;;;;;;;14.02;7.13;;;17.20;88.20;;;;;;5012485;28;20201;-89
2022/08/05 05:29:23;;;;;;;8.52;6.03;;;17.20;88.20;;;;;;5012602;28;20197;-89
2022/08/05 05:31:48;;;;;;;10.45;6.70;;;17.20;88.20;;;;;;5012471;28;20177;-89
2022/08/05 05:34:14;;;;;;;11.43;7.68;;;17.10;88.30;;;;;;5012429;28;20177;-89
2022/08/05 05:36:39;;;;;;;15.52;6.68;;;17.10;88.40;;;;;;5012238;28;20203;-88
2022/08/05 05:39:05;;;;;;;16.70;6.90;;;17.00;88.40;;;;;;5012340;28;20276;-89
2022/08/05 05:41:31;;;;;;;11.52;6.95;;;17.00;88.60;;;;;;5012373;28;20181;-89
2022/08/05 05:43:57;;;;;;;10.65;6.97;;;17.10;88.80;;;;;;5012552;28;20643;-89
2022/08/05 05:46:23;;;;;;;11.32;7.10;;;17.10;88.80;;;;;;5012154;28;20217;-88
2022/08/05 05:48:48;;;;;;;12.43;7.00;;;17.10;88.60;;;;;;5012157;28;20683;-89
2022/08/05 05:51:32;;;;;;;12.13;6.57;;;17.00;88.60;;;;;;5012242;28;20550;-89
2022/08/05 05:53:58;;;;;;;9.80;6.53;;;17.00;88.50;;;;;;5012295;28;20169;-89
2022/08/05 05:56:24;;;;;;;11.65;6.63;;;17.10;88.60;;;;;;5012112;28;20189;-89
2022/08/05 05:58:49;;;;;;;9.65;6.78;;;17.20;88.60;;;;;;5012731;28;20182;-89
2022/08/05 06:01:15;;;;;;;9.98;6.70;;;17.10;88.50;;;;;;5013312;28;20184;-89
2022/08/05 06:03:41;;;;;;;12.20;7.53;;;17.20;88.60;;;;;;5013020;28;20275;-89
2022/08/05 06:06:06;;;;;;;9.45;6.70;;;17.30;88.70;;;;;;5012027;28;20200;-89
2022/08/05 06:08:32;;;;;;;10.70;6.97;;;17.40;88.70;;;;;;5012004;28;20758;-89
2022/08/05 06:10:58;;;;;;;8.98;6.50;;;17.50;88.60;;;;;;5012063;28;20264;-88
2022/08/05 06:13:23;;;;;;;10.63;6.95;;;17.50;88.50;;;;;;5012906;28;20180;-90
2022/08/05 06:15:49;;;;;;;10.65;6.63;;;17.50;88.50;;;;;;5012266;28;20236;-86
2022/08/05 06:18:14;;;;;;;11.20;7.28;;;17.40;88.20;;;;;;5014866;28;20212;-88
2022/08/05 06:20:40;;;;;;;12.32;7.38;;;17.30;88.30;;;;;;5015842;28;20188;-88
2022/08/05 06:23:05;;;;;;;12.40;6.93;;;17.30;88.30;;;;;;5017018;28;20169;-88
2022/08/05 06:25:31;;;;;;;10.57;6.82;;;17.40;88.50;;;;;;5015751;28;20208;-88
2022/08/05 06:27:56;;;;;;;12.63;6.90;;;17.50;88.40;;;;;;5015608;28;20207;-88
2022/08/05 06:30:22;;;;;;;11.80;6.95;;;17.50;88.20;;;;;;5015669;28;20185;-89
2022/08/05 06:32:48;;;;;;;13.15;7.35;;;17.40;88.10;;;;;;5015869;28;20173;-88
2022/08/05 06:35:13;;;;;;;15.65;7.47;;;17.40;88.30;;;;;;5016708;28;20177;-88
2022/08/05 06:37:39;;;;;;;12.02;7.32;;;17.50;88.50;;;;;;5015531;28;20275;-88
2022/08/05 06:40:05;;;;;;;13.57;6.07;;;17.70;88.60;;;;;;5015382;28;20209;-86
2022/08/05 06:42:30;;;;;;;12.95;5.28;;;17.70;88.20;;;;;;5015378;28;20268;-89
2022/08/05 06:44:56;;;;;;;9.38;5.65;;;17.70;87.30;;;;;;5015405;28;20219;-89
2022/08/05 06:47:21;;;;;;;8.23;5.78;;;17.60;87.00;;;;;;5015196;28;20266;-89
2022/08/05 06:49:47;;;;;;;9.70;4.50;;;17.70;87.00;;;;;;5015385;28;20173;-88
2022/08/05 06:52:12;;;;;;;10.63;4.05;;;17.70;86.80;;;;;;5016467;28;20169;-89
2022/08/05 06:54:38;;;;;;;7.82;3.88;;;17.70;86.30;;;;;;5015268;28;20169;-89
2022/08/05 06:57:04;;;;;;;9.70;3.78;;;17.70;86.00;;;;;;5016372;28;20201;-89
2022/08/05 06:59:29;;;;;;;9.52;4.50;;;17.80;85.90;;;;;;5015069;28;20177;-89
2022/08/05 07:01:55;;;;;;;6.93;4.15;;;17.80;85.70;;;;;;5014959;28;20174;-89
2022/08/05 07:04:20;;;;;;;6.10;3.92;;;17.70;85.30;;;;;;5015029;28;20177;-89
2022/08/05 07:06:46;;;;;;;9.88;3.72;;;17.70;85.40;;;;;;5014874;28;20223;-88
2022/08/05 07:09:11;;;;;;;7.47;3.20;;;17.70;85.40;;;;;;5015015;28;20224;-88
2022/08/05 07:11:37;;;;;;;6.22;2.90;;;17.70;85.30;;;;;;5015356;28;20165;-89
2022/08/05 07:16:50;;;;;;;11.52;4.28;;;17.70;84.70;;;;;;5016241;28;20243;-89
2022/08/05 07:19:20;;;;;;;6.57;3.15;;;17.70;84.70;;;;;;5014669;28;20174;-89
2022/08/05 07:21:47;;;;;;;9.95;3.33;;;17.60;84.70;;;;;;5014624;28;20288;-89
2022/08/05 07:24:13;;;;;;;7.20;3.25;;;17.60;84.50;;;;;;5014737;28;20177;-89
2022/08/05 07:26:39;;;;;;;7.93;3.08;;;17.60;84.70;;;;;;5014526;28;20201;-89
2022/08/05 07:29:06;;;;;;;6.38;3.33;;;17.60;84.60;;;;;;5013257;28;20205;-87
2022/08/05 07:31:31;;;;;;;5.05;2.75;;;17.60;84.50;;;;;;5014551;28;20289;-89
2022/08/05 07:33:57;;;;;;;10.02;3.42;;;17.50;84.80;;;;;;5014404;28;20708;-89
2022/08/05 07:36:23;;;;;;;4.82;2.67;;;17.60;85.30;;;;;;5014440;28;20197;-90
2022/08/05 07:38:49;;;;;;;9.45;2.78;;;17.60;85.60;;;;;;5015700;28;20176;-89
2022/08/05 07:41:17;;;;;;;7.45;2.97;;;17.70;85.60;;;;;;5015091;28;20185;-89
2022/08/05 07:43:42;;;;;;;7.15;2.83;;;17.60;85.60;;;;;;5014366;28;20190;-88
2022/08/05 07:46:08;;;;;;;9.43;3.00;;;17.60;85.80;;;;;;5015204;28;20593;-88
2022/08/05 07:48:34;;;;;;;9.70;3.35;;;17.70;86.10;;;;;;5014038;28;20259;-88
2022/08/05 07:50:59;;;;;;;5.45;3.08;;;17.60;86.10;;;;;;5014136;28;20178;-89
2022/08/05 07:53:25;;;;;;;5.35;2.85;;;17.70;86.30;;;;;;5014086;28;20169;-89
2022/08/05 07:55:51;;;;;;;6.20;2.83;;;17.70;86.40;;;;;;5014021;28;20679;-88
2022/08/05 07:58:16;;;;;;;7.10;3.42;;;17.70;86.60;;;;;;5013899;28;20553;-89
2022/08/05 08:00:44;;;;;;;7.93;3.80;;;17.80;86.70;;;;;;5014005;28;20659;-89
2022/08/05 08:03:11;;;;;;;7.97;3.33;;;17.80;86.70;;;;;;5013913;28;20220;-89
2022/08/05 08:05:42;;;;;;;7.45;3.20;;;17.80;86.80;;;;;;5013786;28;20639;-89
2022/08/05 08:08:10;;;;;;;3.95;3.05;;;17.80;86.90;;;;;;5013800;28;20197;-89
2022/08/05 08:10:36;;;;;;;6.53;3.42;;;17.80;86.90;;;;;;5013873;28;20223;-89
2022/08/05 08:13:02;;;;;;;8.65;3.92;;;17.80;86.80;;;;;;5014073;28;20213;-90
2022/08/05 08:15:28;;;;;;;7.78;3.30;;;17.80;86.70;;;;;;5014817;28;20208;-89
2022/08/05 08:17:53;;;;;;;7.60;3.40;;;17.90;86.50;;;;;;5013920;28;20731;-89
2022/08/05 08:20:23;;;;;;;5.57;3.17;;;17.90;86.30;;;;;;5013609;28;20205;-89
2022/08/05 08:22:53;;;;;;;7.38;3.00;;;17.90;86.20;;;;;;5013564;28;20656;-86
2022/08/05 08:25:19;;;;;;;9.07;3.30;;;17.90;86.20;;;;;;5014612;28;20181;-87
2022/08/05 08:27:45;;;;;;;6.78;3.10;;;18.00;86.10;;;;;;5013446;28;20197;-87
2022/08/05 08:30:12;;;;;;;6.57;3.28;;;18.00;86.20;;;;;;5014668;28;20170;-87
2022/08/05 08:32:38;;;;;;;6.78;3.15;;;18.10;86.10;;;;;;5014460;28;20173;-87
2022/08/05 08:35:04;;;;;;;6.13;2.90;;;18.10;86.20;;;;;;5013209;28;20177;-87
2022/08/05 08:37:30;;;;;;;8.20;3.15;;;18.10;86.20;;;;;;5014322;28;20180;-87
2022/08/05 08:39:55;;;;;;;4.40;2.85;;;18.10;86.00;;;;;;5013322;28;20278;-87
2022/08/05 08:42:21;;;;;;;8.10;3.35;;;18.10;85.70;;;;;;5014008;28;20256;-87
2022/08/05 08:44:48;;;;;;;7.50;2.85;;;18.10;85.60;;;;;;5013013;28;20180;-87
2022/08/05 08:47:17;;;;;;;5.30;2.83;;;18.10;85.50;;;;;;5014225;28;20738;-89
2022/08/05 08:49:45;;;;;;;5.40;2.75;;;18.10;85.30;;;;;;5014172;28;20205;-89
2022/08/05 08:52:12;;;;;;;4.93;2.40;;;18.00;85.20;;;;;;5012998;28;20169;-89
2022/08/05 08:54:38;;;;;;;5.40;2.53;;;18.10;85.30;;;;;;5012915;28;20170;-89
2022/08/05 08:57:06;;;;;;;5.63;2.60;;;18.20;85.30;;;;;;5013252;28;20204;-89
2022/08/05 08:59:32;;;;;;;8.63;2.78;;;18.20;85.20;;;;;;5013110;28;20204;-90
2022/08/05 09:01:58;;;;;;;7.30;2.78;;;18.20;85.10;;;;;;5012893;28;20161;-90
2022/08/05 09:04:25;;;;;;;3.55;2.50;;;18.20;84.90;;;;;;5013319;28;20199;-89
2022/08/05 09:06:50;;;;;;;5.65;2.63;;;18.20;84.90;;;;;;5013921;28;20671;-89
2022/08/05 09:09:16;;;;;;;4.13;2.13;;;18.30;84.30;;;;;;5012732;28;20205;-89
2022/08/05 09:11:41;;;;;;;6.57;2.72;;;18.30;84.00;;;;;;5013551;28;20174;-86
2022/08/05 09:14:07;;;;;;;5.35;2.10;;;18.30;83.90;;;;;;5012559;28;20643;-86
2022/08/05 09:16:33;;;;;;;4.50;2.10;;;18.40;83.80;;;;;;5013718;28;20212;-86
2022/08/05 09:18:58;;;;;;;7.55;2.67;;;18.30;83.80;;;;;;5012813;28;20178;-86
2022/08/05 09:21:27;;;;;;;3.13;2.30;;;18.40;84.00;;;;;;5013773;28;20228;-86
2022/08/05 09:24:04;;;;;;;5.40;2.75;;;18.40;83.50;;;;;;5012452;28;20717;-86
2022/08/05 09:26:30;;;;;;;6.22;2.75;;;18.30;83.30;;;;;;5012281;28;20288;-86
2022/08/05 09:29:00;;;;;;;4.00;2.35;;;18.30;83.50;;;;;;5013494;28;20276;-86
2022/08/05 09:31:26;;;;;;;4.70;2.78;;;18.30;83.40;;;;;;5012336;28;20583;-86
2022/08/05 09:34:00;;;;;;;5.93;2.08;;;18.30;83.60;;;;;;5013874;28;20178;-86
2022/08/05 09:36:50;;;;;;;5.50;2.22;;;18.30;83.40;;;;;;5012244;28;20219;-87
2022/08/05 09:39:16;;;;;;;5.28;2.00;;;18.20;83.10;;;;;;5013801;28;20177;-86
2022/08/05 09:41:59;;;;;;;10.10;2.60;;;18.20;82.70;;;;;;5012256;28;20184;-86
2022/08/05 09:44:50;;;;;;;10.07;2.28;;;18.20;82.40;;;;;;5012335;28;20534;-88
2022/08/05 09:47:21;;;;;;;5.07;2.25;;;18.20;82.30;;;;;;5011316;28;20224;-87
2022/08/05 09:49:48;;;;;;;12.60;3.00;;;18.20;82.20;;;;;;5012516;28;20193;-86
2022/08/05 09:52:17;;;;;;;10.90;2.90;;;18.30;82.50;;;;;;5011869;28;20551;-86
2022/08/05 09:54:59;;;;;;;8.52;1.90;;;18.30;82.40;;;;;;5014804;28;20697;-87
2022/08/05 09:57:46;;;;;;;4.35;2.00;;;18.40;82.10;;;;;;5015127;28;20576;-87
2022/08/05 10:00:19;;;;;;;6.85;2.20;;;18.50;82.00;;;;;;5014828;28;20161;-86
2022/08/05 10:02:46;;;;;;;5.10;1.67;;;18.50;81.80;;;;;;5014876;28;20268;-87
2022/08/05 10:05:18;;;;;;;4.35;1.83;;;18.50;81.90;;;;;;5016217;28;20176;-87
2022/08/05 10:07:57;;;;;;;8.18;2.67;;;18.50;81.80;;;;;;5015725;28;20580;-86
2022/08/05 10:10:42;;;;;;;4.43;2.13;;;18.40;81.00;;;;;;5015860;28;20578;-88
2022/08/05 10:13:07;;;;;;;7.45;1.95;;;18.40;80.90;;;;;;5016037;28;20158;-85
2022/08/05 10:15:35;;;;;;;6.68;1.98;;;18.30;79.90;;;;;;5014504;28;20535;-86
2022/08/05 10:18:10;;;;;;;5.13;1.90;;;18.40;79.80;;;;;;5014458;28;20620;-85
2022/08/05 10:20:40;;;;;;;6.38;1.98;;;18.20;79.40;;;;;;5015368;28;20195;-86
2022/08/05 10:23:06;;;;;;;10.00;2.40;;;18.20;80.00;;;;;;5014371;28;20235;-86
2022/08/05 10:25:31;;;;;;;7.78;1.83;;;18.10;80.70;;;;;;5015462;28;20675;-85
2022/08/05 10:27:57;;;;;;;5.90;1.45;;;18.10;80.80;;;;;;5015474;28;20629;-86
2022/08/05 10:30:23;;;;;;;7.30;1.85;;;18.00;81.10;;;;;;5014367;28;20174;-86
2022/08/05 10:32:49;;;;;;;4.10;1.80;;;18.00;81.80;;;;;;5015709;28;20550;-86
2022/08/05 10:35:15;;;;;;;5.60;2.08;;;17.90;82.10;;;;;;5014017;28;20177;-85
2022/08/05 10:37:41;;;;;;;7.03;2.15;;;18.00;82.30;;;;;;5014220;28;20259;-85
2022/08/05 10:40:15;;;;;;;6.93;1.92;;;17.90;83.20;;;;;;5014191;28;20724;-88
2022/08/05 10:42:43;;;;;;;3.70;2.17;;;17.80;83.90;;;;;;5014229;28;20169;-89
2022/08/05 10:45:10;;;;;;;7.48;2.24;;;17.90;84.50;;;;;;4977833;28;1081542;-88
2022/08/05 10:47:43;;;;;;;6.32;2.13;;;18.00;84.40;;;;;;5015342;28;20158;-89
2022/08/05 10:50:13;;;;;;;7.63;2.50;;;18.10;84.70;;;;;;5016604;28;20200;-89
2022/08/05 10:52:52;;;;;;;6.95;2.20;;;18.00;84.50;;;;;;5016775;28;20189;-89
2022/08/05 10:55:18;;;;;;;4.55;2.15;;;17.90;85.00;;;;;;5015930;28;20165;-87
2022/08/05 10:57:45;;;;;;;5.10;2.33;;;17.80;85.20;;;;;;5016274;28;20177;-86
2022/08/05 11:00:17;;;;;;;4.57;1.95;;;17.90;85.20;;;;;;5014931;28;20169;-86
2022/08/05 11:03:04;;;;;;;4.25;2.00;;;17.80;85.00;;;;;;5014922;28;20173;-86
2022/08/05 11:05:30;;;;;;;5.25;2.40;;;17.50;84.90;;;;;;5016084;28;20197;-86
2022/08/05 11:07:58;;;;;;;8.32;2.92;;;17.60;85.50;;;;;;5016005;28;20701;-86
2022/08/05 11:10:26;;;;;;;8.20;2.92;;;17.80;85.50;;;;;;5014853;28;20213;-87
2022/08/05 11:12:51;;;;;;;7.80;2.47;;;17.90;85.60;;;;;;5014826;28;20659;-86
2022/08/05 11:15:32;;;;;;;7.68;2.30;;;17.80;85.50;;;;;;5015870;28;20212;-86
2022/08/05 11:18:28;;;;;;;9.20;2.60;;;17.80;85.40;;;;;;5014714;28;20165;-86
2022/08/05 11:20:55;;;;;;;6.45;2.50;;;17.80;85.20;;;;;;5007347;28;20251;-88
2022/08/05 11:23:34;;;;;;;6.82;2.53;;;17.80;85.30;;;;;;5016508;28;20177;-88
2022/08/05 11:26:21;;;;;;;4.68;2.47;;;17.90;85.30;;;;;;5014622;28;20282;-88
2022/08/05 11:28:52;;;;;;;6.15;2.72;;;17.50;84.60;;;;;;5015973;28;20663;-88
2022/08/05 11:31:19;;;;;;;6.68;3.13;;;17.40;85.80;;;;;;5016164;28;20225;-88
2022/08/05 11:33:47;;;;;;;5.60;2.88;;;17.70;86.10;;;;;;5014564;28;20200;-87
2022/08/05 11:36:19;;;;;;;6.88;3.13;;;17.60;86.10;;;;;;5015783;28;20196;-87
2022/08/05 11:38:46;;;;;;;7.55;3.60;;;17.80;86.50;;;;;;5014339;28;20663;-87
2022/08/05 11:41:30;;;;;;;9.63;3.45;;;17.80;86.50;;;;;;5014324;28;20190;-88
2022/08/05 11:44:13;;;;;;;3.90;2.33;;;17.50;85.40;;;;;;5014349;28;20193;-87
2022/08/05 11:46:47;;;;;;;6.47;2.70;;;17.70;85.80;;;;;;5014257;28;20216;-87
2022/08/05 11:49:16;;;;;;;4.38;2.10;;;17.70;85.70;;;;;;5014302;28;20192;-87
2022/08/05 11:51:43;;;;;;;4.70;2.33;;;17.70;85.40;;;;;;5015375;28;20169;-88
2022/08/05 11:54:11;;;;;;;6.88;2.03;;;17.80;85.40;;;;;;5015327;28;20223;-87
2022/08/05 11:56:50;;;;;;;3.40;1.88;;;18.00;85.20;;;;;;5013933;28;20262;-89
2022/08/05 11:59:25;;;;;;;4.28;1.70;;;17.80;85.00;;;;;;5015510;28;20168;-90
2022/08/05 12:02:02;;;;;;;5.85;2.10;;;17.80;84.70;;;;;;5015152;28;20204;-90
2022/08/05 12:04:40;;;;;;;4.72;2.22;;;17.70;85.00;;;;;;5013871;28;20165;-90
2022/08/05 12:07:07;;;;;;;4.03;2.35;;;17.80;85.60;;;;;;5013816;28;20193;-90
2022/08/05 12:09:48;;;;;;;7.43;2.80;;;17.90;85.10;;;;;;5013707;28;20204;-90
2022/08/05 12:12:21;;;;;;;5.32;2.10;;;18.00;84.70;;;;;;5013752;28;20215;-90
2022/08/05 12:14:47;;;;;;;5.75;2.40;;;18.00;83.50;;;;;;5014592;28;20634;-89
2022/08/05 12:17:13;;;;;;;5.65;2.47;;;18.00;84.30;;;;;;5013379;28;20197;-89
2022/08/05 12:19:53;;;;;;;4.43;1.90;;;18.10;84.30;;;;;;5014838;28;20177;-89
2022/08/05 12:22:20;;;;;;;6.10;2.58;;;18.30;84.80;;;;;;5013681;28;20176;-90
2022/08/05 12:24:50;;;;;;;10.40;2.55;;;18.30;84.40;;;;;;5013521;28;20181;-89
2022/08/05 12:27:28;;;;;;;6.13;2.33;;;18.10;83.40;;;;;;5013502;28;20196;-89
2022/08/05 12:30:09;;;;;;;7.75;3.20;;;18.50;84.30;;;;;;5013326;28;20228;-89
2022/08/05 12:32:42;;;;;;;7.53;2.90;;;18.70;83.60;;;;;;5014579;28;20576;-89
2022/08/05 12:35:08;;;;;;;7.28;3.00;;;18.60;83.20;;;;;;5013229;28;20216;-89
2022/08/05 12:37:34;;;;;;;7.05;2.38;;;18.60;83.60;;;;;;5013209;28;20177;-89
2022/08/05 12:40:00;;;;;;;5.80;3.10;;;18.70;83.20;;;;;;5013610;28;20174;-89
2022/08/05 12:42:29;;;;;;;5.32;2.58;;;18.80;83.50;;;;;;5013137;28;20260;-89
2022/08/05 12:45:21;;;;;;;8.48;2.90;;;18.80;82.20;;;;;;5013144;28;20231;-89
2022/08/05 12:47:46;;;;;;;7.68;2.67;;;19.00;81.70;;;;;;5010428;28;20194;-89
2022/08/05 12:50:16;;;;;;;5.68;2.60;;;19.10;82.10;;;;;;5013890;28;20222;-86
2022/08/05 12:52:52;;;;;;;7.22;2.60;;;19.30;82.10;;;;;;5013144;28;20178;-86
2022/08/05 12:55:22;;;;;;;4.63;2.13;;;18.90;80.90;;;;;;5014875;28;20165;-88